Hlavní strana
METAR-TAF:

METAR-TAF

Letiště :

Pilanesberg International Airport

Sun City, Jihoafrická republika

zeměpisná šířka: 25-20-01S, zeměpisná délka: 027-10-24E, výška: 1040 m

Aktuální stav počasí

Zpráva byla vytvořena před 54 minutami, v 18:00 UTC
Západní vítr 5 kt
Teplota 22°C
Vlhkost vzduchu 43%
Tlak 1023 hPa

METAR: FAPN 231800Z AUTO 27005KT //// // ////// 22/09 Q1023

Čas: 20:54 (18:54 UTC)


TAF: chybějící

Stav a předpovědi počasí z více než 4 000 letišť (zprávy METAR a TAF).

Červené a žluté tečky na mapě představují dostupné meteorologické stanice.

Když kurzor umístíte na tečku, zobrazí se název stanice.

Pak kliknutím zobrazíte stav a předpověď počasí.

Chcete-li změnit mapu, kliknutím na zelené tlačítko se znaménkem +mapu přiblížíte, kliknutím na zelené tlačítko se znaménkem – mapu oddálíte a kliknutím na zelené šipky přejdete na sousední mapy.


METAR-TAF: